• Join FlightAware (Why Join?)
  • Login
  • US Flag 
05:13AM EDT


 

Airport Tracker/Info


-or-


 

Live Flight TrackerFlight Track Log ✈ JBU1329 ✈ 13-May-2013 ✈ KBOS - KBWI

Flight Track Log - Related Links

Times and Time Zones

All times are in EDT time to prevent confusion due to time zone crossing. See the JBU1329 flight status page for this flight to view local times or setup timezone preferences in your user account.

Time Position Orientation Groundspeed Altitude Reporting Facility
EDT Latitude Longitude Course Direction KTS MPH feet Rate Location/Type
09:12AM 42.3500 -71.0167 228° Southwest 162 186 600  Level KA90
09:13AM 42.3108 -70.9156 118° Southeast 213 245 4,200 2,460 Climbing Boston Center
09:14AM 42.3325 -70.8253 72° East 246 283 7,000 3,000 Climbing Boston Center
09:15AM 42.3470 -70.7261 172° South  Level FlightAware Approximate
09:15AM 42.2958 -70.7308 118° Southeast 264 304 10,200  Level Boston Center
09:16AM 42.2919 -70.7288 228° Southwest  Level FlightAware Approximate
09:16AM 42.2231 -70.7356 183° South 207 238 12,600  Level Boston Center
09:17AM 42.2521 -70.7885 228° Southwest  Level FlightAware Approximate
09:17AM 42.1867 -70.8289 242° Southwest 188 216 15,000  Level Boston Center
09:18AM 42.1717 -70.9358 259° West 260 299 17,900 2,460 Climbing Boston Center
09:19AM 42.1542 -71.0511 258° West 294 338 20,000 2,160 Climbing Boston Center
09:20AM 42.1200 -71.1581 247° West 306 352 22,300 2,100 Climbing Boston Center
09:21AM 42.0839 -71.2708 247° West 318 366 24,200 1,860 Climbing Boston Center
09:22AM 42.0453 -71.3806 245° Southwest 318 366 26,100 1,500 Climbing Boston Center
09:24AM 42.0067 -71.4958 246° West 323 372 27,600 1,500 Climbing Boston Center
09:25AM 41.9536 -71.6389 244° Southwest 328 377 29,500 1,800 Climbing Boston Center
09:26AM 41.9169 -71.7539 247° West 328 377 31,200 1,200 Climbing Boston Center
09:27AM 41.8800 -71.8658 246° West 328 377 32,000 360 Climbing Boston Center
09:28AM 41.8389 -71.9831 245° Southwest 340 391 32,000  Level Boston Center
09:29AM 41.7997 -72.1031 246° West 345 397 32,000  Level Boston Center
09:30AM 41.7561 -72.2231 244° Southwest 345 397 32,000  Level Boston Center
09:31AM 41.7167 -72.3428 246° West 350 403 32,000  Level Boston Center
09:32AM 41.6750 -72.4650 246° West 356 410 32,000  Level Boston Center
09:33AM 41.6375 -72.5733 245° Southwest 356 410 32,000  Level Boston Center
09:34AM 41.5956 -72.6928 245° Southwest 361 415 32,000  Level Boston Center
09:35AM 41.5517 -72.8144 244° Southwest 361 415 32,000  Level Boston Center
09:36AM 41.5094 -72.9447 247° West 352 405 32,000  Level Boston Center
09:37AM 41.4650 -73.0661 244° Southwest 352 405 32,000  Level Boston Center
09:38AM 41.3936 -73.2658 245° Southwest 353 406 32,000  Level New York Center
09:39AM 41.3533 -73.3858 246° West 353 406 32,000  Level New York Center
09:40AM 41.3111 -73.5056 245° Southwest 360 414 32,000  Level New York Center
09:41AM 41.2606 -73.6222 240° Southwest 360 414 32,000  Level New York Center
09:42AM 41.1997 -73.7244 232° Southwest 365 420 32,000  Level New York Center
09:43AM 41.1367 -73.8292 231° Southwest 370 426 32,000  Level New York Center
09:44AM 41.0756 -73.9364 233° Southwest 370 426 32,000  Level New York Center
09:45AM 41.0122 -74.0381 230° Southwest 364 419 32,000 -60 Level New York Center
09:46AM 40.9489 -74.1419 231° Southwest 364 419 31,900 -1,020 Descending New York Center
09:47AM 40.8789 -74.2539 230° Southwest 364 419 30,000 -1,620 Descending New York Center
09:48AM 40.8264 -74.3444 233° Southwest 358 412 28,700 -1,020 Descending New York Center
09:49AM 40.7606 -74.4478 230° Southwest 353 406 28,000 -360 Descending New York Center
09:50AM 40.7100 -74.5381 234° Southwest 348 400 28,000 -180 Level New York Center
09:51AM 40.6439 -74.6411 230° Southwest 343 395 27,700 -600 Descending New York Center
09:52AM 40.5933 -74.7283 233° Southwest 338 389 26,800 -960 Descending New York Center
09:53AM 40.5231 -74.8281 227° Southwest 338 389 25,800 -960 Descending New York Center
09:54AM 40.4617 -74.9172 228° Southwest 338 389 24,900 -960 Descending New York Center
09:55AM 40.4022 -75.0036 228° Southwest 333 383 23,900 -1,320 Descending New York Center
09:56AM 40.3456 -75.0764 224° Southwest 333 383 22,300 -2,040 Descending New York Center
09:57AM 40.2861 -75.1625 228° Southwest 333 383 19,800 -2,220 Descending New York Center
09:58AM 40.2200 -75.2561 227° Southwest 328 377 18,000 -960 Descending New York Center
09:59AM 40.1583 -75.3392 226° Southwest 334 384 18,000  Level New York Center
10:00AM 40.0969 -75.4219 226° Southwest 327 376 18,000  Level New York Center
10:01AM 40.0439 -75.4969 227° Southwest 322 371 18,000  Level New York Center
10:02AM 39.9775 -75.5872 226° Southwest 322 371 18,000 -240 Level New York Center
10:03AM 39.9244 -75.6622 227° Southwest 317 365 17,600 -720 Descending New York Center
10:04AM 39.8703 -75.7639 235° Southwest 317 365 16,600 -960 Descending New York Center
10:05AM 39.8269 -75.8472 236° Southwest 317 365 15,800 -840 Descending New York Center
10:06AM 39.7747 -75.9461 236° Southwest 317 365 15,000 -1,140 Descending New York Center
10:09AM 39.6667 -76.1500 235° Southwest 273 314 12,000 -1,020 Descending Potomac TRACON
10:10AM 39.6167 -76.2333 232° Southwest 251 289 11,600 -1,200 Descending Potomac TRACON
10:11AM 39.5667 -76.2833 218° Southwest 260 299 9,600 -2,100 Descending Potomac TRACON
10:12AM 39.5000 -76.3500 218° Southwest 263 303 7,500 -2,100 Descending Potomac TRACON
10:13AM 39.4500 -76.4000 218° Southwest 257 296 5,400 -1,440 Descending Potomac TRACON
10:14AM 39.4000 -76.4500 218° Southwest 217 250 4,700 -1,020 Descending Potomac TRACON
10:15AM 39.3333 -76.4333 169° South 221 254 3,400 -900 Descending Potomac TRACON
10:16AM 39.2833 -76.4333 180° South 199 229 3,000 -240 Descending Potomac TRACON
10:17AM 39.2333 -76.4167 166° South 179 206 3,000  Level Potomac TRACON